createdAt,value
2022-08-16T00:00:38.591Z,40.18
2022-08-16T00:03:13.161Z,40.36
2022-08-16T00:05:48.065Z,40.46
2022-08-16T00:08:35.789Z,40.42
2022-08-16T00:11:08.080Z,40.52
2022-08-16T00:13:53.309Z,40.35
2022-08-16T00:17:06.038Z,40.61
2022-08-16T00:19:18.312Z,40.88
2022-08-16T00:21:53.316Z,40.77
2022-08-16T00:24:32.660Z,40.99
2022-08-16T00:27:03.455Z,40.42
2022-08-16T00:29:33.638Z,40.59
2022-08-16T00:32:06.499Z,40.65
2022-08-16T00:34:43.465Z,41.08
2022-08-16T00:37:17.099Z,40.84
2022-08-16T00:39:58.028Z,41.20
2022-08-16T00:42:32.031Z,40.94
2022-08-16T00:45:08.416Z,41.12
2022-08-16T00:47:48.918Z,41.31
2022-08-16T00:50:36.311Z,41.21
2022-08-16T00:53:07.935Z,41.22
2022-08-16T00:55:40.733Z,41.15
2022-08-16T00:58:13.033Z,41.19
2022-08-16T01:00:54.048Z,41.30
2022-08-16T01:03:30.126Z,41.74
2022-08-16T01:06:40.850Z,41.60
2022-08-16T01:08:55.725Z,41.76
2022-08-16T01:11:30.024Z,41.85
2022-08-16T01:14:04.887Z,41.48
2022-08-16T01:16:35.166Z,41.48
2022-08-16T01:19:11.399Z,41.67
2022-08-16T01:21:51.678Z,41.71
2022-08-16T01:24:53.722Z,41.67
2022-08-16T01:27:23.430Z,41.60
2022-08-16T01:30:01.890Z,41.70
2022-08-16T01:32:38.780Z,41.78
2022-08-16T01:35:17.669Z,41.98
2022-08-16T01:37:53.966Z,42.01
2022-08-16T01:40:31.607Z,42.02
2022-08-16T01:43:01.065Z,41.81
2022-08-16T01:45:40.706Z,41.78
2022-08-16T01:48:19.620Z,42.17
2022-08-16T01:51:09.788Z,42.55
2022-08-16T01:53:43.896Z,42.50
2022-08-16T01:56:24.233Z,42.49
2022-08-16T01:58:56.051Z,42.61
2022-08-16T02:01:28.095Z,42.88
2022-08-16T02:04:10.195Z,43.32
2022-08-16T02:06:45.928Z,43.13
2022-08-16T02:09:20.977Z,43.19
2022-08-16T02:11:56.683Z,43.76
2022-08-16T02:14:31.553Z,43.54
2022-08-16T02:17:04.737Z,43.76
2022-08-16T02:19:58.688Z,44.05
2022-08-16T02:22:33.542Z,44.22
2022-08-16T02:25:09.934Z,44.10
2022-08-16T02:27:43.634Z,44.25
2022-08-16T02:30:36.778Z,44.33
2022-08-16T02:33:11.998Z,43.84
2022-08-16T02:35:49.966Z,44.32
2022-08-16T02:38:26.699Z,44.30
2022-08-16T02:40:57.634Z,44.08
2022-08-16T02:43:33.434Z,44.17
2022-08-16T02:46:08.881Z,44.36
2022-08-16T02:48:39.842Z,44.57
2022-08-16T02:51:23.462Z,44.36
2022-08-16T02:53:53.565Z,44.59
2022-08-16T02:56:25.628Z,44.48
2022-08-16T02:59:11.477Z,44.66
2022-08-16T03:01:44.383Z,44.86
2022-08-16T03:04:28.769Z,44.81
2022-08-16T03:07:11.801Z,44.81
2022-08-16T03:09:44.927Z,45.28
2022-08-16T03:12:19.403Z,45.16
2022-08-16T03:14:52.496Z,45.20
2022-08-16T03:17:24.698Z,44.93
2022-08-16T03:20:05.601Z,44.62
2022-08-16T03:22:40.327Z,44.98
2022-08-16T03:25:18.129Z,44.52
2022-08-16T03:27:59.931Z,45.00
2022-08-16T03:30:34.378Z,45.01
2022-08-16T03:33:07.452Z,44.89
2022-08-16T03:35:45.773Z,44.77
2022-08-16T03:38:34.536Z,45.36
2022-08-16T03:41:17.099Z,44.75
2022-08-16T03:43:59.748Z,44.52
2022-08-16T03:46:47.312Z,44.95
2022-08-16T03:49:37.423Z,44.59
2022-08-16T03:52:13.579Z,45.05
2022-08-16T03:54:57.760Z,45.21
2022-08-16T03:57:36.263Z,44.84
2022-08-16T04:00:35.275Z,44.91
2022-08-16T04:03:14.896Z,44.71
2022-08-16T04:05:51.459Z,44.32
2022-08-16T04:08:27.833Z,44.85
2022-08-16T04:11:04.944Z,44.19
2022-08-16T04:14:00.708Z,44.05
2022-08-16T04:16:38.084Z,43.91
2022-08-16T04:19:51.639Z,43.96
2022-08-16T04:22:48.985Z,43.48
2022-08-16T04:25:23.292Z,43.49
2022-08-16T04:28:51.710Z,42.95
2022-08-16T04:31:01.371Z,42.64
2022-08-16T04:33:50.936Z,42.32
2022-08-16T04:36:32.680Z,42.39
2022-08-16T04:39:03.326Z,42.28
2022-08-16T04:41:37.614Z,42.13
2022-08-16T04:44:52.819Z,41.55
2022-08-16T04:47:21.603Z,41.47
2022-08-16T04:49:59.269Z,40.72
2022-08-16T04:52:36.662Z,41.00
2022-08-16T04:55:16.978Z,40.66
2022-08-16T04:57:53.369Z,39.23
2022-08-16T05:00:34.002Z,40.30
2022-08-16T05:03:16.031Z,40.53
2022-08-16T05:06:07.025Z,40.20
2022-08-16T05:08:47.422Z,39.99
2022-08-16T05:11:34.731Z,39.74
2022-08-16T05:14:07.719Z,40.00
2022-08-16T05:16:46.114Z,39.73
2022-08-16T05:19:19.312Z,39.94
2022-08-16T05:22:19.178Z,40.09
2022-08-16T05:24:56.824Z,39.18
2022-08-16T05:27:29.481Z,39.15
2022-08-16T05:30:35.662Z,38.67
2022-08-16T05:33:27.306Z,39.50
2022-08-16T05:36:03.640Z,39.49
2022-08-16T05:38:41.807Z,39.29
2022-08-16T05:41:22.020Z,39.41
2022-08-16T05:43:59.203Z,39.47
2022-08-16T05:46:45.104Z,39.61
2022-08-16T05:49:22.432Z,39.50
2022-08-16T05:52:00.286Z,39.07
2022-08-16T05:54:32.210Z,39.48
2022-08-16T05:57:06.904Z,39.12
2022-08-16T05:59:45.626Z,38.53
2022-08-16T06:02:17.781Z,38.40
2022-08-16T06:04:49.487Z,38.19
2022-08-16T06:07:24.991Z,38.16
2022-08-16T06:10:32.507Z,38.23
2022-08-16T06:13:07.421Z,38.26
2022-08-16T06:15:41.527Z,37.59
2022-08-16T06:18:12.377Z,37.56
2022-08-16T06:20:55.490Z,36.80
2022-08-16T06:23:28.209Z,36.96
2022-08-16T06:26:07.764Z,37.02
2022-08-16T06:28:44.129Z,36.98
2022-08-16T06:31:26.046Z,36.37
2022-08-16T06:33:59.158Z,35.95
2022-08-16T06:36:33.461Z,35.29
2022-08-16T06:39:25.671Z,34.36
2022-08-16T06:42:01.207Z,33.84
2022-08-16T06:44:53.067Z,33.44
2022-08-16T06:47:53.116Z,31.83
2022-08-16T06:50:29.463Z,30.89
2022-08-16T06:53:09.019Z,29.48
2022-08-16T06:55:54.543Z,28.24
2022-08-16T06:58:31.716Z,27.90
2022-08-16T07:01:15.007Z,26.50
2022-08-16T07:03:55.618Z,26.88
2022-08-16T07:06:32.816Z,26.08
2022-08-16T07:09:09.767Z,25.48
2022-08-16T07:11:51.767Z,25.78
2022-08-16T07:14:35.390Z,25.54
2022-08-16T07:17:11.286Z,26.67
2022-08-16T07:20:03.499Z,26.30
2022-08-16T07:22:59.428Z,25.36
2022-08-16T07:25:48.951Z,26.34
2022-08-16T07:28:24.244Z,27.26
2022-08-16T07:31:00.270Z,26.96
2022-08-16T07:33:52.205Z,27.04
2022-08-16T07:36:27.096Z,26.30
2022-08-16T07:39:01.195Z,26.20
2022-08-16T07:41:37.420Z,24.99
2022-08-16T07:44:16.428Z,24.13
2022-08-16T07:46:55.448Z,24.11
2022-08-16T07:49:32.447Z,24.09
2022-08-16T07:52:18.901Z,24.90
2022-08-16T07:54:53.434Z,24.71
2022-08-16T07:57:26.354Z,25.39
2022-08-16T07:59:57.522Z,24.41
2022-08-16T08:02:28.900Z,24.38
2022-08-16T08:05:05.523Z,25.13
2022-08-16T08:07:36.814Z,23.92
2022-08-16T08:10:11.068Z,24.11
2022-08-16T08:12:43.859Z,24.22
2022-08-16T08:15:15.516Z,23.58
2022-08-16T08:17:55.366Z,22.95
2022-08-16T08:20:36.058Z,22.63
2022-08-16T08:23:12.306Z,21.48
2022-08-16T08:25:53.947Z,21.81
2022-08-16T08:28:33.812Z,22.09
2022-08-16T08:31:11.718Z,22.36
2022-08-16T08:33:51.603Z,22.37
2022-08-16T08:36:32.940Z,22.75
2022-08-16T08:39:12.905Z,23.02
2022-08-16T08:41:46.509Z,23.04
2022-08-16T08:44:29.835Z,22.99
2022-08-16T08:47:09.344Z,23.23
2022-08-16T08:49:46.323Z,23.23
2022-08-16T08:52:34.404Z,23.06
2022-08-16T08:55:17.001Z,22.65
2022-08-16T08:57:48.539Z,21.78
2022-08-16T09:00:34.423Z,21.73
2022-08-16T09:03:25.314Z,21.10
2022-08-16T09:05:58.368Z,21.67
2022-08-16T09:08:31.641Z,21.41
2022-08-16T09:11:08.969Z,21.82
2022-08-16T09:13:47.100Z,21.56
2022-08-16T09:17:03.492Z,21.09
2022-08-16T09:19:10.308Z,20.12
2022-08-16T09:21:41.143Z,19.78
2022-08-16T09:24:13.228Z,18.78
2022-08-16T09:27:05.944Z,18.91
2022-08-16T09:29:45.742Z,19.37
2022-08-16T09:32:25.617Z,20.50
2022-08-16T09:35:01.825Z,19.61
2022-08-16T09:37:36.820Z,18.85
2022-08-16T09:40:33.080Z,19.42
2022-08-16T09:43:46.422Z,19.25
2022-08-16T09:46:45.196Z,19.12
2022-08-16T09:48:59.457Z,19.16
2022-08-16T09:51:36.597Z,18.24
2022-08-16T09:54:09.657Z,19.67
2022-08-16T09:56:52.835Z,18.85
2022-08-16T09:59:25.485Z,18.53
2022-08-16T10:02:01.119Z,18.07
2022-08-16T10:04:54.313Z,17.80
2022-08-16T10:07:25.044Z,18.77
2022-08-16T10:09:56.490Z,19.38
2022-08-16T10:12:55.742Z,20.28
2022-08-16T10:15:30.047Z,19.31
2022-08-16T10:18:02.500Z,17.31
2022-08-16T10:20:51.161Z,16.55
2022-08-16T10:23:22.996Z,16.30
2022-08-16T10:27:20.232Z,16.58
2022-08-16T10:28:52.350Z,17.04
2022-08-16T10:31:44.130Z,17.77
2022-08-16T10:34:31.349Z,17.26
2022-08-16T10:37:03.501Z,16.57
2022-08-16T10:39:41.792Z,16.89
2022-08-16T10:42:15.470Z,18.34
2022-08-16T10:44:53.846Z,17.77
2022-08-16T10:47:25.183Z,18.44
2022-08-16T10:49:56.079Z,18.79
2022-08-16T10:58:11.731Z,16.56
2022-08-16T11:00:46.229Z,16.18
2022-08-16T11:06:15.120Z,17.99
2022-08-16T11:09:20.855Z,18.48
2022-08-16T11:14:33.522Z,16.66
2022-08-16T11:17:11.410Z,16.07
2022-08-16T11:22:42.187Z,15.97
2022-08-16T11:29:12.195Z,16.35
2022-08-16T11:31:09.475Z,16.20
2022-08-16T11:33:53.346Z,17.36
2022-08-16T11:36:25.073Z,17.03
2022-08-16T11:39:05.634Z,16.47
2022-08-16T11:41:43.567Z,16.41
2022-08-16T11:44:14.099Z,17.33
2022-08-16T11:46:50.131Z,16.64
2022-08-16T11:49:25.940Z,16.43
2022-08-16T11:51:56.438Z,15.99
2022-08-16T11:54:34.294Z,15.56
2022-08-16T11:57:09.150Z,15.47
2022-08-16T11:59:41.307Z,15.27
2022-08-16T12:02:31.907Z,14.97
2022-08-16T12:05:09.759Z,14.84
2022-08-16T12:07:42.632Z,16.43
2022-08-16T12:10:21.293Z,19.20
2022-08-16T12:12:57.867Z,20.58
2022-08-16T12:15:29.266Z,22.25
2022-08-16T12:18:03.460Z,22.87
2022-08-16T12:20:45.802Z,21.11
2022-08-16T12:23:15.734Z,19.57
2022-08-16T12:25:48.175Z,20.66
2022-08-16T12:28:36.980Z,21.20
2022-08-16T12:31:19.207Z,21.11
2022-08-16T12:33:57.689Z,20.85
2022-08-16T12:36:30.148Z,20.97
2022-08-16T12:39:03.735Z,21.30
2022-08-16T12:41:37.954Z,22.06
2022-08-16T12:44:26.811Z,22.31
2022-08-16T12:47:21.128Z,22.24
2022-08-16T12:49:54.314Z,23.42
2022-08-16T12:52:38.840Z,22.36
2022-08-16T12:55:16.989Z,23.71
2022-08-16T12:57:58.206Z,24.03
2022-08-16T13:00:33.291Z,24.75
2022-08-16T13:03:07.877Z,24.34
2022-08-16T13:05:47.935Z,24.32
2022-08-16T13:08:30.988Z,23.72
2022-08-16T13:11:15.361Z,23.61
2022-08-16T13:14:01.119Z,24.54
2022-08-16T13:16:37.717Z,23.70
2022-08-16T13:19:10.592Z,23.93
2022-08-16T13:21:50.698Z,24.26
2022-08-16T13:24:35.431Z,24.27
2022-08-16T13:27:12.988Z,23.99
2022-08-16T13:29:57.366Z,23.39
2022-08-16T13:32:40.212Z,22.76
2022-08-16T13:35:15.868Z,22.18
2022-08-16T13:37:50.831Z,22.48
2022-08-16T13:40:26.430Z,23.04
2022-08-16T13:43:01.566Z,23.43
2022-08-16T13:45:44.919Z,23.96
2022-08-16T13:48:21.891Z,24.10
2022-08-16T13:51:07.705Z,23.76
2022-08-16T13:53:38.287Z,24.18
2022-08-16T13:56:24.757Z,24.47
2022-08-16T13:58:55.713Z,23.59
2022-08-16T14:01:27.768Z,24.25
2022-08-16T14:04:01.394Z,23.93
2022-08-16T14:06:34.497Z,23.50
2022-08-16T14:09:06.560Z,23.97
2022-08-16T14:11:38.454Z,24.34
2022-08-16T14:14:11.248Z,24.66
2022-08-16T14:16:41.691Z,24.96
2022-08-16T14:19:22.405Z,25.24
2022-08-16T14:22:14.610Z,25.57
2022-08-16T14:24:50.314Z,25.30
2022-08-16T14:27:31.763Z,25.57
2022-08-16T14:30:05.668Z,25.96
2022-08-16T14:32:35.974Z,25.91
2022-08-16T14:35:14.103Z,25.89
2022-08-16T14:37:52.622Z,26.09
2022-08-16T14:40:29.142Z,26.62
2022-08-16T14:43:07.040Z,26.69
2022-08-16T14:45:37.510Z,26.05
2022-08-16T14:48:09.615Z,26.39
2022-08-16T14:50:41.328Z,26.50
2022-08-16T14:53:12.289Z,26.95
2022-08-16T14:55:52.224Z,27.56
2022-08-16T14:58:35.080Z,26.55
2022-08-16T15:01:10.141Z,27.21
2022-08-16T15:03:44.917Z,27.61
2022-08-16T15:06:16.450Z,27.94
2022-08-16T15:08:46.863Z,27.92
2022-08-16T15:11:17.791Z,27.57
2022-08-16T15:13:48.957Z,28.07
2022-08-16T15:16:29.022Z,28.30
2022-08-16T15:19:01.666Z,28.67
2022-08-16T15:21:42.492Z,28.61
2022-08-16T15:24:16.630Z,28.89
2022-08-16T15:26:55.363Z,29.10
2022-08-16T15:29:27.173Z,28.67
2022-08-16T15:32:01.415Z,29.11
2022-08-16T15:34:32.996Z,29.08
2022-08-16T15:37:04.160Z,29.33
2022-08-16T15:39:39.716Z,29.39
2022-08-16T15:42:15.624Z,29.83
2022-08-16T15:45:00.144Z,30.00
2022-08-16T15:47:35.336Z,30.28
2022-08-16T15:50:14.890Z,30.51
2022-08-16T15:52:47.076Z,30.90
2022-08-16T15:55:29.710Z,31.29
2022-08-16T15:58:35.032Z,31.29
2022-08-16T16:00:59.312Z,31.80
2022-08-16T16:03:29.310Z,31.84
2022-08-16T16:06:05.999Z,32.23
2022-08-16T16:08:36.309Z,32.46
2022-08-16T16:11:12.034Z,32.69
2022-08-16T16:13:44.220Z,32.82
2022-08-16T16:16:19.793Z,32.98
2022-08-16T16:18:52.314Z,32.97
2022-08-16T16:21:23.145Z,33.45
2022-08-16T16:23:57.740Z,33.84
2022-08-16T16:26:31.944Z,34.07
2022-08-16T16:29:14.537Z,34.10
2022-08-16T16:31:51.376Z,34.17
2022-08-16T16:34:32.122Z,34.33
2022-08-16T16:37:05.262Z,34.52
2022-08-16T16:39:45.728Z,34.32
2022-08-16T16:42:29.127Z,34.80
2022-08-16T16:45:03.165Z,35.25
2022-08-16T16:47:41.981Z,35.41
2022-08-16T16:50:16.344Z,35.41
2022-08-16T16:52:48.436Z,35.87
2022-08-16T16:55:18.638Z,35.74
2022-08-16T16:58:17.796Z,36.07
2022-08-16T17:01:02.703Z,35.91
2022-08-16T17:03:35.604Z,35.98
2022-08-16T17:06:15.052Z,36.66
2022-08-16T17:08:49.972Z,36.64
2022-08-16T17:11:23.633Z,36.31
2022-08-16T17:13:54.508Z,36.18
2022-08-16T17:16:32.963Z,36.33
2022-08-16T17:19:16.953Z,36.41
2022-08-16T17:21:51.707Z,35.98
2022-08-16T17:24:31.256Z,36.84
2022-08-16T17:27:09.598Z,36.16
2022-08-16T17:29:42.821Z,36.39
2022-08-16T17:32:34.226Z,36.43
2022-08-16T17:35:18.346Z,36.39
2022-08-16T17:37:50.789Z,36.78
2022-08-16T17:40:45.784Z,36.77
2022-08-16T17:43:16.582Z,36.79
2022-08-16T17:45:46.100Z,37.03
2022-08-16T17:48:18.080Z,36.98
2022-08-16T17:50:54.763Z,36.86
2022-08-16T17:53:24.954Z,36.48
2022-08-16T17:55:56.254Z,36.51
2022-08-16T17:58:27.964Z,36.70
2022-08-16T18:01:00.412Z,36.82
2022-08-16T18:04:03.018Z,36.77
2022-08-16T18:06:29.182Z,36.73
2022-08-16T18:09:09.279Z,37.25
2022-08-16T18:11:42.989Z,37.03
2022-08-16T18:14:13.334Z,36.63
2022-08-16T18:16:43.434Z,37.11
2022-08-16T18:19:13.527Z,36.82
2022-08-16T18:22:03.438Z,37.21
2022-08-16T18:24:33.504Z,37.24
2022-08-16T18:27:26.512Z,37.05
2022-08-16T18:29:56.169Z,37.15
2022-08-16T18:32:25.580Z,36.23
2022-08-16T18:34:56.067Z,37.19
2022-08-16T18:37:28.059Z,37.27
2022-08-16T18:39:58.378Z,37.39
2022-08-16T18:42:30.103Z,37.95
2022-08-16T18:44:59.278Z,37.72
2022-08-16T18:47:30.489Z,37.43
2022-08-16T18:50:00.729Z,37.56
2022-08-16T18:52:32.141Z,37.51
2022-08-16T18:55:33.485Z,37.81
2022-08-16T18:58:04.425Z,38.00
2022-08-16T19:00:47.137Z,38.01
2022-08-16T19:03:29.759Z,37.86
2022-08-16T19:06:03.812Z,37.88
2022-08-16T19:09:07.438Z,37.90
2022-08-16T19:11:38.562Z,38.20
2022-08-16T19:14:10.902Z,37.06
2022-08-16T19:16:43.382Z,37.93
2022-08-16T19:19:13.982Z,38.29
2022-08-16T19:21:44.667Z,37.88
2022-08-16T19:24:18.129Z,38.01
2022-08-16T19:26:51.578Z,37.78
2022-08-16T19:29:24.094Z,38.25
2022-08-16T19:31:54.485Z,38.51
2022-08-16T19:34:24.551Z,38.57
2022-08-16T19:36:56.555Z,38.24
2022-08-16T19:39:32.412Z,38.19
2022-08-16T19:42:13.552Z,38.26
2022-08-16T19:44:44.536Z,38.47
2022-08-16T19:47:14.590Z,38.24
2022-08-16T19:49:44.979Z,38.38
2022-08-16T19:52:18.514Z,38.14
2022-08-16T19:54:49.740Z,38.27
2022-08-16T19:57:24.029Z,38.45
2022-08-16T19:59:58.645Z,38.77
2022-08-16T20:02:36.074Z,38.38
2022-08-16T20:05:07.222Z,38.78
2022-08-16T20:07:38.375Z,38.79
2022-08-16T20:10:17.016Z,39.07
2022-08-16T20:12:58.391Z,39.04
2022-08-16T20:15:40.950Z,39.15
2022-08-16T20:18:21.301Z,39.49
2022-08-16T20:20:57.141Z,39.53
2022-08-16T20:23:27.190Z,39.49
2022-08-16T20:25:56.855Z,39.88
2022-08-16T20:28:53.804Z,39.40
2022-08-16T20:31:25.594Z,39.95
2022-08-16T20:34:08.441Z,39.82
2022-08-16T20:36:38.069Z,40.04
2022-08-16T20:39:08.027Z,40.10
2022-08-16T20:41:41.835Z,40.64
2022-08-16T20:44:14.210Z,40.62
2022-08-16T20:46:46.039Z,40.51
2022-08-16T20:49:15.588Z,40.66
2022-08-16T20:51:50.825Z,40.71
2022-08-16T20:54:23.535Z,41.27
2022-08-16T20:56:54.378Z,41.39
2022-08-16T20:59:25.848Z,41.39
2022-08-16T21:01:55.793Z,41.50
2022-08-16T21:04:27.919Z,41.56
2022-08-16T21:07:02.779Z,41.78
2022-08-16T21:09:34.189Z,41.82
2022-08-16T21:12:07.856Z,41.63
2022-08-16T21:14:45.179Z,41.79
2022-08-16T21:17:53.572Z,41.91
2022-08-16T21:20:37.343Z,42.05
2022-08-16T21:23:11.414Z,42.22
2022-08-16T21:26:11.203Z,42.31
2022-08-16T21:28:55.931Z,42.56
2022-08-16T21:31:27.310Z,42.51
2022-08-16T21:34:31.464Z,42.44
2022-08-16T21:37:09.687Z,42.66
2022-08-16T21:39:40.176Z,42.63
2022-08-16T21:42:15.082Z,42.94
2022-08-16T21:44:45.909Z,43.11
2022-08-16T21:47:19.746Z,42.86
2022-08-16T21:49:55.682Z,43.10
2022-08-16T21:52:26.858Z,43.29
2022-08-16T21:54:59.899Z,42.99
2022-08-16T22:00:23.699Z,43.33
2022-08-16T22:03:01.993Z,43.28
2022-08-16T22:05:45.897Z,43.94
2022-08-16T22:08:47.879Z,43.97
2022-08-16T22:11:23.486Z,43.65
2022-08-16T22:14:00.106Z,44.25
2022-08-16T22:16:40.287Z,43.82
2022-08-16T22:19:57.397Z,44.07
2022-08-16T22:22:26.738Z,44.68
2022-08-16T22:25:06.365Z,44.51
2022-08-16T22:27:36.901Z,44.75
2022-08-16T22:30:22.902Z,44.27
2022-08-16T22:33:09.695Z,44.52
2022-08-16T22:35:45.480Z,44.42
2022-08-16T22:41:04.138Z,44.55
2022-08-16T22:43:37.385Z,44.88
2022-08-16T22:46:10.591Z,44.54
2022-08-16T22:48:46.563Z,44.84
2022-08-16T22:51:17.503Z,44.61
2022-08-16T22:53:46.873Z,44.64
2022-08-16T22:56:28.670Z,44.81
2022-08-16T22:58:58.930Z,44.79
2022-08-16T23:01:28.332Z,44.96
2022-08-16T23:04:09.292Z,44.84
2022-08-16T23:09:28.118Z,45.02
2022-08-16T23:11:58.871Z,44.93
2022-08-16T23:14:31.485Z,44.97
2022-08-16T23:17:10.658Z,45.00
2022-08-16T23:19:40.851Z,44.81
2022-08-16T23:22:11.613Z,45.23
2022-08-16T23:24:55.053Z,44.81
2022-08-16T23:27:31.765Z,45.08
2022-08-16T23:30:08.888Z,45.39
2022-08-16T23:32:45.589Z,45.32
2022-08-16T23:35:16.801Z,44.86
2022-08-16T23:37:49.113Z,44.93
2022-08-16T23:40:19.452Z,45.34
2022-08-16T23:43:01.755Z,44.80
2022-08-16T23:45:38.898Z,45.25
2022-08-16T23:48:08.979Z,45.29
2022-08-16T23:50:41.179Z,44.83
2022-08-16T23:53:13.845Z,44.87
2022-08-16T23:55:46.220Z,44.94
2022-08-16T23:58:18.021Z,44.98
